Terminal Aerodrome Forecast
Issued by NWS

Home | Current Version | Previous Version | Text Only | Print | Product List | Glossary On
Versions: 1 2 3 4 5 6 7 8 9 10 11 12 13
000
FTUS45 KRIW 270533
TAFWRL
TAF
KWRL 270533Z 2706/2806 17007KT P6SM SCT070 BKN100
     FM270900 16005KT P6SM VCFG SCT007 SCT100
     FM271400 VRB05KT P6SM FEW100
     FM271900 35008KT P6SM SCT080
     FM280200 VRB06KT P6SM FEW110=

USA.gov is the U.S. government's official web portal to all federal, state and local government web resources and services.